Time;durP1;ratioP1;P1;durP2;ratioP2;P2;SDS_P1;SDS_P2;PMS_P1;PMS_P2;Temp;Humidity;BMP_temperature;BMP_pressure;BME280_temperature;BME280_humidity;BME280_pressure;Samples;Min_cycle;Max_cycle;Signal;HPM_P1;HPM_P2
2023/03/27 00:00:15;;;;;;;2.03;0.90;;;;;;;;;;4954683;29;20035;-77
2023/03/27 00:02:41;;;;;;;0.00;0.00;;;;;;;;;;4954663;29;20074;-77
2023/03/27 00:05:07;;;;;;;0.85;0.30;;;;;;;;;;4954237;29;20027;-77
2023/03/27 00:07:39;;;;;;;0.98;0.52;;;;;;;;;;4954150;29;20027;-77
2023/03/27 00:10:06;;;;;;;0.25;0.22;;;;;;;;;;4954620;29;20023;-77
2023/03/27 00:12:36;;;;;;;4.43;0.47;;;;;;;;;;4954078;29;20544;-77
2023/03/27 00:15:02;;;;;;;4.18;0.77;;;;;;;;;;4954064;29;20058;-77
2023/03/27 00:17:29;;;;;;;6.10;0.75;;;;;;;;;;4954058;29;20110;-77
2023/03/27 00:19:54;;;;;;;5.85;0.50;;;;;;;;;;4954406;29;20055;-77
2023/03/27 00:22:20;;;;;;;3.60;0.90;;;;;;;;;;4954142;29;20059;-77
2023/03/27 00:24:46;;;;;;;5.38;0.47;;;;;;;;;;4954110;29;20031;-77
2023/03/27 00:27:13;;;;;;;1.13;0.25;;;;;;;;;;4954014;29;20111;-77
2023/03/27 00:29:39;;;;;;;2.42;0.40;;;;;;;;;;4954431;29;20211;-77
2023/03/27 00:32:05;;;;;;;2.67;0.50;;;;;;;;;;4954449;28;20089;-77
2023/03/27 00:34:31;;;;;;;2.38;0.52;;;;;;;;;;4957211;29;20019;-77
2023/03/27 00:36:57;;;;;;;3.30;0.63;;;;;;;;;;4957318;29;20034;-77
2023/03/27 00:39:23;;;;;;;4.60;0.60;;;;;;;;;;4957413;29;20082;-77
2023/03/27 00:41:50;;;;;;;7.13;0.65;;;;;;;;;;4957477;29;20115;-77
2023/03/27 00:44:29;;;;;;;5.90;0.55;;;;;;;;;;4957666;29;20028;-77
2023/03/27 00:46:56;;;;;;;2.13;0.45;;;;;;;;;;4957568;29;20086;-77
2023/03/27 00:49:24;;;;;;;5.80;0.75;;;;;;;;;;4957181;29;20539;-77
2023/03/27 00:51:51;;;;;;;3.75;0.60;;;;;;;;;;4957005;29;20019;-77
2023/03/27 00:54:20;;;;;;;5.97;0.82;;;;;;;;;;4957028;29;20427;-77
2023/03/27 00:56:48;;;;;;;5.60;0.47;;;;;;;;;;4957118;29;20067;-77
2023/03/27 00:59:17;;;;;;;3.20;0.60;;;;;;;;;;4957399;29;20023;-77
2023/03/27 01:01:43;;;;;;;2.40;0.73;;;;;;;;;;4956989;29;20035;-77
2023/03/27 01:04:10;;;;;;;3.47;0.90;;;;;;;;;;4956994;29;20161;-77
2023/03/27 01:06:36;;;;;;;2.08;0.60;;;;;;;;;;4957052;29;20028;-78
2023/03/27 01:09:03;;;;;;;3.00;0.95;;;;;;;;;;4956959;29;20023;-77
2023/03/27 01:11:45;;;;;;;1.77;0.60;;;;;;;;;;4957231;29;20030;-77
2023/03/27 01:14:11;;;;;;;1.80;0.25;;;;;;;;;;4956858;29;20035;-78
2023/03/27 01:16:37;;;;;;;0.47;0.30;;;;;;;;;;4939524;29;20035;-77
2023/03/27 01:19:12;;;;;;;3.88;0.70;;;;;;;;;;4956939;29;20102;-77
2023/03/27 01:21:38;;;;;;;4.60;0.77;;;;;;;;;;4956734;29;20030;-78
2023/03/27 01:24:16;;;;;;;3.75;0.60;;;;;;;;;;4956677;29;20031;-77
2023/03/27 01:26:56;;;;;;;2.83;0.60;;;;;;;;;;4939225;29;20067;-77
2023/03/27 01:29:28;;;;;;;3.90;0.52;;;;;;;;;;4956726;29;20027;-77
2023/03/27 01:32:10;;;;;;;2.63;0.50;;;;;;;;;;4956706;29;20027;-77
2023/03/27 01:34:43;;;;;;;4.28;0.70;;;;;;;;;;4956346;29;20038;-77
2023/03/27 01:37:23;;;;;;;7.95;0.70;;;;;;;;;;4956592;29;20056;-77
2023/03/27 01:39:56;;;;;;;3.35;0.77;;;;;;;;;;4956474;29;20370;-77
2023/03/27 01:42:25;;;;;;;2.53;0.57;;;;;;;;;;4956271;29;20158;-77
2023/03/27 01:44:55;;;;;;;3.33;0.40;;;;;;;;;;4955820;28;20099;-77
2023/03/27 01:47:25;;;;;;;1.83;0.68;;;;;;;;;;4956179;29;20062;-77
2023/03/27 01:49:57;;;;;;;7.45;0.60;;;;;;;;;;4956381;29;20039;-77
2023/03/27 01:52:29;;;;;;;3.10;0.35;;;;;;;;;;4956175;29;20109;-77
2023/03/27 01:54:57;;;;;;;4.55;0.95;;;;;;;;;;4955971;29;20101;-77
2023/03/27 01:57:28;;;;;;;4.65;0.73;;;;;;;;;;4956335;29;20027;-77
2023/03/27 01:59:57;;;;;;;3.33;0.63;;;;;;;;;;4955835;29;20467;-77
2023/03/27 02:02:31;;;;;;;1.63;0.43;;;;;;;;;;4956065;29;20462;-77
2023/03/27 02:05:18;;;;;;;3.05;0.90;;;;;;;;;;4955795;29;20110;-77
2023/03/27 02:07:50;;;;;;;2.15;0.50;;;;;;;;;;4955410;29;20043;-77
2023/03/27 02:10:19;;;;;;;7.53;0.77;;;;;;;;;;4955653;29;20102;-77
2023/03/27 02:12:57;;;;;;;5.18;0.60;;;;;;;;;;4955465;29;20434;-77
2023/03/27 02:15:27;;;;;;;3.65;0.57;;;;;;;;;;4955609;29;20027;-77
2023/03/27 02:18:03;;;;;;;5.30;1.42;;;;;;;;;;4955513;29;20482;-77
2023/03/27 02:20:30;;;;;;;4.75;0.90;;;;;;;;;;4955658;29;20110;-77
2023/03/27 02:22:59;;;;;;;3.05;0.38;;;;;;;;;;4955436;29;20027;-77
2023/03/27 02:25:25;;;;;;;3.22;0.70;;;;;;;;;;4955744;29;20027;-76
2023/03/27 02:27:57;;;;;;;4.63;0.70;;;;;;;;;;4955248;29;20031;-77
2023/03/27 02:30:25;;;;;;;3.95;0.55;;;;;;;;;;4955280;29;20028;-76
2023/03/27 02:32:55;;;;;;;4.07;1.02;;;;;;;;;;4955225;29;20027;-76
2023/03/27 02:35:21;;;;;;;3.50;0.55;;;;;;;;;;4955175;29;20026;-76
2023/03/27 02:37:50;;;;;;;4.47;0.65;;;;;;;;;;4955342;29;20499;-76
2023/03/27 02:40:17;;;;;;;3.47;0.40;;;;;;;;;;4955056;29;20391;-76
2023/03/27 02:43:02;;;;;;;2.72;0.57;;;;;;;;;;4955362;29;20031;-77
2023/03/27 02:45:31;;;;;;;2.55;0.60;;;;;;;;;;4954563;29;20027;-77
2023/03/27 02:48:06;;;;;;;3.22;0.63;;;;;;;;;;4955062;29;20043;-77
2023/03/27 02:50:36;;;;;;;0.15;0.15;;;;;;;;;;4955123;29;20019;-76
2023/03/27 02:53:04;;;;;;;1.52;0.38;;;;;;;;;;4954960;29;20102;-77
2023/03/27 02:55:38;;;;;;;4.10;0.85;;;;;;;;;;4937020;29;20023;-77
2023/03/27 02:58:11;;;;;;;1.33;0.65;;;;;;;;;;4954986;29;20085;-77
2023/03/27 03:00:46;;;;;;;10.45;1.40;;;;;;;;;;4954858;29;20066;-77
2023/03/27 03:03:26;;;;;;;5.18;1.02;;;;;;;;;;4955102;29;20019;-77
2023/03/27 03:05:53;;;;;;;7.72;1.38;;;;;;;;;;4955044;29;20536;-77
2023/03/27 03:08:21;;;;;;;4.10;0.80;;;;;;;;;;4954781;29;20031;-77
2023/03/27 03:10:47;;;;;;;5.85;1.00;;;;;;;;;;4954741;29;20047;-77
2023/03/27 03:13:14;;;;;;;7.95;0.88;;;;;;;;;;4954659;29;20029;-77
2023/03/27 03:15:40;;;;;;;5.40;1.00;;;;;;;;;;4954691;29;20031;-77
2023/03/27 03:18:06;;;;;;;4.47;0.63;;;;;;;;;;4937595;29;20043;-77
2023/03/27 03:20:36;;;;;;;6.18;0.98;;;;;;;;;;4954501;29;20024;-76
2023/03/27 03:23:02;;;;;;;6.83;1.20;;;;;;;;;;4954578;29;20094;-77
2023/03/27 03:25:30;;;;;;;7.68;1.48;;;;;;;;;;4954802;29;20028;-77
2023/03/27 03:27:59;;;;;;;6.05;1.25;;;;;;;;;;4954810;29;20023;-77
2023/03/27 03:30:26;;;;;;;9.25;1.25;;;;;;;;;;4954541;29;20023;-77
2023/03/27 03:32:53;;;;;;;6.38;1.10;;;;;;;;;;4954525;29;20102;-77
2023/03/27 03:35:20;;;;;;;5.00;0.88;;;;;;;;;;4954409;29;20469;-75
2023/03/27 03:37:49;;;;;;;2.50;0.50;;;;;;;;;;4954457;29;20529;-77
2023/03/27 03:40:16;;;;;;;6.95;1.38;;;;;;;;;;4954630;29;20019;-75
2023/03/27 03:42:46;;;;;;;5.38;1.13;;;;;;;;;;4954687;29;20066;-75
2023/03/27 03:45:12;;;;;;;9.98;0.82;;;;;;;;;;4954394;29;20027;-75
2023/03/27 03:47:42;;;;;;;1.85;0.73;;;;;;;;;;4954225;29;20047;-75
2023/03/27 03:50:08;;;;;;;4.55;1.15;;;;;;;;;;4954337;29;20027;-75
2023/03/27 03:52:34;;;;;;;0.82;0.32;;;;;;;;;;4954320;29;20415;-75
2023/03/27 03:55:03;;;;;;;0.43;0.43;;;;;;;;;;4937069;29;20062;-75
2023/03/27 03:57:29;;;;;;;4.38;0.55;;;;;;;;;;4954565;29;20034;-75
2023/03/27 03:59:57;;;;;;;6.07;1.42;;;;;;;;;;4954561;29;20510;-75
2023/03/27 04:02:29;;;;;;;2.80;0.60;;;;;;;;;;4954259;29;20031;-75
2023/03/27 04:04:56;;;;;;;4.53;0.77;;;;;;;;;;4954335;29;20556;-75
2023/03/27 04:07:22;;;;;;;3.15;0.82;;;;;;;;;;4945962;29;20849;-75
2023/03/27 04:09:49;;;;;;;4.85;0.70;;;;;;;;;;4957859;29;20365;-75
2023/03/27 04:12:15;;;;;;;4.45;0.50;;;;;;;;;;4957660;29;20019;-76
2023/03/27 04:14:41;;;;;;;4.10;0.70;;;;;;;;;;4957907;29;20509;-75
2023/03/27 04:17:08;;;;;;;3.85;0.80;;;;;;;;;;4958050;29;20123;-75
2023/03/27 04:19:34;;;;;;;4.88;0.50;;;;;;;;;;4957321;29;20019;-75
2023/03/27 04:22:01;;;;;;;3.83;0.60;;;;;;;;;;4957370;29;20023;-75
2023/03/27 04:24:29;;;;;;;5.05;0.40;;;;;;;;;;4957557;29;20039;-75
2023/03/27 04:27:00;;;;;;;2.95;0.55;;;;;;;;;;4957731;29;20510;-77
2023/03/27 04:29:30;;;;;;;3.67;0.68;;;;;;;;;;4940301;29;20524;-77
2023/03/27 04:31:57;;;;;;;7.18;1.00;;;;;;;;;;4957118;29;20034;-77
2023/03/27 04:34:24;;;;;;;3.17;0.98;;;;;;;;;;4957247;29;20019;-77
2023/03/27 04:36:51;;;;;;;3.00;0.40;;;;;;;;;;4957353;29;20024;-77
2023/03/27 04:39:17;;;;;;;4.22;0.80;;;;;;;;;;4957276;29;20022;-77
2023/03/27 04:41:50;;;;;;;4.70;0.65;;;;;;;;;;4957224;29;20111;-77
2023/03/27 04:44:16;;;;;;;5.00;0.77;;;;;;;;;;4945098;29;20027;-75
2023/03/27 04:46:43;;;;;;;3.60;1.13;;;;;;;;;;4937614;29;20483;-74
2023/03/27 04:49:09;;;;;;;1.95;0.38;;;;;;;;;;4938036;29;20095;-75
2023/03/27 04:51:35;;;;;;;1.92;0.60;;;;;;;;;;4938268;29;20024;-75
2023/03/27 04:54:06;;;;;;;4.35;0.32;;;;;;;;;;4937848;29;20067;-74
2023/03/27 04:56:33;;;;;;;3.95;1.02;;;;;;;;;;4937989;29;20020;-75
2023/03/27 04:59:02;;;;;;;3.03;0.57;;;;;;;;;;4937974;29;20027;-74
2023/03/27 05:01:28;;;;;;;4.68;0.30;;;;;;;;;;4937870;29;20023;-74
2023/03/27 05:03:55;;;;;;;3.13;0.70;;;;;;;;;;4937808;29;20019;-74
2023/03/27 05:06:21;;;;;;;6.65;0.80;;;;;;;;;;4937936;29;20031;-75
2023/03/27 05:08:47;;;;;;;6.18;1.05;;;;;;;;;;4937591;29;20034;-75
2023/03/27 05:11:13;;;;;;;4.50;0.85;;;;;;;;;;4937446;29;20031;-75
2023/03/27 05:13:39;;;;;;;2.05;0.40;;;;;;;;;;4937752;29;20035;-75
2023/03/27 05:16:07;;;;;;;5.32;0.40;;;;;;;;;;4937660;29;20455;-76
2023/03/27 05:18:34;;;;;;;7.00;0.75;;;;;;;;;;4936975;29;20079;-75
2023/03/27 05:21:00;;;;;;;1.02;0.40;;;;;;;;;;4935975;29;20031;-75
2023/03/27 05:23:26;;;;;;;4.22;0.70;;;;;;;;;;4937339;29;20451;-75
2023/03/27 05:25:55;;;;;;;0.98;0.30;;;;;;;;;;4937368;29;20051;-76
2023/03/27 05:28:21;;;;;;;3.75;0.25;;;;;;;;;;4937407;29;20115;-76
2023/03/27 05:30:47;;;;;;;1.92;0.50;;;;;;;;;;4937208;29;20032;-75
2023/03/27 05:33:13;;;;;;;2.92;0.35;;;;;;;;;;4937429;29;20059;-75
2023/03/27 05:35:45;;;;;;;1.60;0.20;;;;;;;;;;4937239;29;20526;-75
2023/03/27 05:38:12;;;;;;;1.92;0.57;;;;;;;;;;4949196;29;20031;-76
2023/03/27 05:40:38;;;;;;;1.55;0.30;;;;;;;;;;4939010;29;20512;-75
2023/03/27 05:43:04;;;;;;;1.77;0.38;;;;;;;;;;4956471;29;20016;-76
2023/03/27 05:45:31;;;;;;;3.45;0.40;;;;;;;;;;4955836;29;20055;-76
2023/03/27 05:47:58;;;;;;;1.35;0.30;;;;;;;;;;4956098;29;20030;-75
2023/03/27 05:50:27;;;;;;;3.60;0.85;;;;;;;;;;4955929;29;20111;-76
2023/03/27 05:53:00;;;;;;;2.15;0.40;;;;;;;;;;4956080;29;20027;-75
2023/03/27 05:55:26;;;;;;;0.75;0.43;;;;;;;;;;4955767;29;20078;-75
2023/03/27 05:57:53;;;;;;;0.82;0.35;;;;;;;;;;4956111;29;20027;-76
2023/03/27 06:00:26;;;;;;;1.60;0.38;;;;;;;;;;4955852;29;20062;-75
2023/03/27 06:02:56;;;;;;;1.90;0.32;;;;;;;;;;4955854;29;20045;-75
2023/03/27 06:05:22;;;;;;;3.03;0.60;;;;;;;;;;4955788;29;20447;-75
2023/03/27 06:07:48;;;;;;;0.57;0.25;;;;;;;;;;4955764;29;20035;-75
2023/03/27 06:10:19;;;;;;;3.75;0.68;;;;;;;;;;4955438;29;20110;-75
2023/03/27 06:12:46;;;;;;;1.95;0.40;;;;;;;;;;4955336;29;20070;-75
2023/03/27 06:15:14;;;;;;;0.98;0.20;;;;;;;;;;4955712;29;20066;-75
2023/03/27 06:17:41;;;;;;;0.10;0.10;;;;;;;;;;4955691;29;20019;-75
2023/03/27 06:20:10;;;;;;;2.65;0.28;;;;;;;;;;4938010;29;20074;-75
2023/03/27 06:22:44;;;;;;;0.30;0.20;;;;;;;;;;4955785;29;20070;-75
2023/03/27 06:25:10;;;;;;;0.65;0.13;;;;;;;;;;4938083;29;20720;-75
2023/03/27 06:27:38;;;;;;;0.40;0.13;;;;;;;;;;4955399;29;20027;-75
2023/03/27 06:30:04;;;;;;;2.40;0.40;;;;;;;;;;4954757;28;20023;-75
2023/03/27 06:32:30;;;;;;;0.28;0.20;;;;;;;;;;4954992;29;20032;-75
2023/03/27 06:34:56;;;;;;;1.20;0.20;;;;;;;;;;4955210;29;20031;-75
2023/03/27 06:37:23;;;;;;;4.15;0.40;;;;;;;;;;4955077;29;20034;-75
2023/03/27 06:39:50;;;;;;;2.50;0.30;;;;;;;;;;4955364;29;20074;-75
2023/03/27 06:42:17;;;;;;;2.65;0.40;;;;;;;;;;4955260;29;20061;-75
2023/03/27 06:44:43;;;;;;;1.70;0.45;;;;;;;;;;4955219;29;20110;-75
2023/03/27 06:47:09;;;;;;;2.05;0.40;;;;;;;;;;4955071;29;20138;-75
2023/03/27 06:49:35;;;;;;;5.75;0.68;;;;;;;;;;4955012;29;20051;-75
2023/03/27 06:52:01;;;;;;;5.18;0.90;;;;;;;;;;4955055;29;20027;-76
2023/03/27 06:54:28;;;;;;;3.55;0.50;;;;;;;;;;4955191;29;20046;-75
2023/03/27 06:56:54;;;;;;;3.92;0.45;;;;;;;;;;4937681;29;20047;-75
2023/03/27 06:59:20;;;;;;;4.93;0.75;;;;;;;;;;4955130;29;20027;-75
2023/03/27 07:01:46;;;;;;;7.18;1.42;;;;;;;;;;4953985;29;20034;-75
2023/03/27 07:04:12;;;;;;;1.30;0.40;;;;;;;;;;4954721;29;20027;-76
2023/03/27 07:06:38;;;;;;;1.98;0.50;;;;;;;;;;4954724;29;20659;-76
2023/03/27 07:09:04;;;;;;;3.25;0.40;;;;;;;;;;4951906;29;20478;-75
2023/03/27 07:11:30;;;;;;;1.85;0.30;;;;;;;;;;4938196;29;20024;-76
2023/03/27 07:13:56;;;;;;;2.10;0.50;;;;;;;;;;4950428;29;20050;-76
2023/03/27 07:16:22;;;;;;;4.18;0.80;;;;;;;;;;4954562;29;20414;-76
2023/03/27 07:18:48;;;;;;;0.60;0.30;;;;;;;;;;4954647;29;20035;-76
2023/03/27 07:21:14;;;;;;;0.95;0.40;;;;;;;;;;4937126;29;20039;-76
2023/03/27 07:23:47;;;;;;;1.30;0.20;;;;;;;;;;4955006;29;20454;-76
2023/03/27 07:26:13;;;;;;;3.33;0.30;;;;;;;;;;4954534;29;20553;-76
2023/03/27 07:28:39;;;;;;;2.50;0.43;;;;;;;;;;4954713;29;20073;-76
2023/03/27 07:31:07;;;;;;;1.98;0.40;;;;;;;;;;4954362;29;20023;-75
2023/03/27 07:33:33;;;;;;;1.65;0.40;;;;;;;;;;4954720;29;20023;-76
2023/03/27 07:35:59;;;;;;;7.05;0.70;;;;;;;;;;4954437;29;20034;-76
2023/03/27 07:38:25;;;;;;;2.45;0.43;;;;;;;;;;4954683;29;20028;-76
2023/03/27 07:40:51;;;;;;;5.93;0.82;;;;;;;;;;4954483;29;20030;-76
2023/03/27 07:43:17;;;;;;;4.15;0.57;;;;;;;;;;4957406;28;20053;-76
2023/03/27 07:45:43;;;;;;;5.05;1.00;;;;;;;;;;4956972;29;20043;-76
2023/03/27 07:48:13;;;;;;;5.53;0.75;;;;;;;;;;4958374;29;20039;-76
2023/03/27 07:50:39;;;;;;;2.28;0.63;;;;;;;;;;4958534;29;20427;-77
2023/03/27 07:53:08;;;;;;;2.53;0.50;;;;;;;;;;4958272;29;20078;-76
2023/03/27 07:55:36;;;;;;;4.18;0.57;;;;;;;;;;4958087;29;20062;-76
2023/03/27 07:58:02;;;;;;;1.00;0.45;;;;;;;;;;4958467;29;20023;-77
2023/03/27 08:00:29;;;;;;;3.00;0.40;;;;;;;;;;4958181;29;20032;-77
2023/03/27 08:03:05;;;;;;;1.52;0.40;;;;;;;;;;4958221;29;20074;-77
2023/03/27 08:05:31;;;;;;;1.40;0.43;;;;;;;;;;4940725;29;20574;-77
2023/03/27 08:07:58;;;;;;;4.50;0.60;;;;;;;;;;4957864;29;20039;-77
2023/03/27 08:10:24;;;;;;;0.90;0.52;;;;;;;;;;4934322;29;20134;-77
2023/03/27 08:12:50;;;;;;;2.03;0.30;;;;;;;;;;4946783;29;20020;-77
2023/03/27 08:15:21;;;;;;;2.53;0.32;;;;;;;;;;4952749;29;20042;-77
2023/03/27 08:17:52;;;;;;;4.30;0.47;;;;;;;;;;4955308;29;20505;-78
2023/03/27 08:20:18;;;;;;;2.28;0.50;;;;;;;;;;4932422;29;20031;-77
2023/03/27 08:22:44;;;;;;;1.27;0.70;;;;;;;;;;4946824;29;20124;-77
2023/03/27 08:25:10;;;;;;;1.70;0.82;;;;;;;;;;4954982;29;20559;-77
2023/03/27 08:27:37;;;;;;;3.75;0.60;;;;;;;;;;4938399;29;20031;-77
2023/03/27 08:30:03;;;;;;;1.80;0.60;;;;;;;;;;4942900;29;20054;-77
2023/03/27 08:32:30;;;;;;;3.30;0.60;;;;;;;;;;4957518;29;20015;-76
2023/03/27 08:34:56;;;;;;;2.70;0.73;;;;;;;;;;4957094;29;20012;-76
2023/03/27 08:37:22;;;;;;;1.58;0.40;;;;;;;;;;4957308;29;20054;-76
2023/03/27 08:39:48;;;;;;;3.92;0.57;;;;;;;;;;4957202;29;20015;-76
2023/03/27 08:42:21;;;;;;;4.35;0.65;;;;;;;;;;4957278;29;20070;-77
2023/03/27 08:44:53;;;;;;;4.70;0.60;;;;;;;;;;4957300;29;20667;-77
2023/03/27 08:47:21;;;;;;;2.40;0.75;;;;;;;;;;4955715;29;20083;-77
2023/03/27 08:49:50;;;;;;;1.67;0.55;;;;;;;;;;4957282;29;20047;-77
2023/03/27 08:52:18;;;;;;;8.38;0.93;;;;;;;;;;4939753;29;20027;-77
2023/03/27 08:54:47;;;;;;;1.80;0.47;;;;;;;;;;4956117;28;20102;-76
2023/03/27 08:57:20;;;;;;;5.00;0.80;;;;;;;;;;4923441;29;20373;-77
2023/03/27 08:59:46;;;;;;;13.30;2.20;;;;;;;;;;4937874;29;20082;-77
2023/03/27 09:02:44;;;;;;;0.60;0.38;;;;;;;;;;4936497;29;20511;-77
2023/03/27 09:05:26;;;;;;;2.95;0.63;;;;;;;;;;4930066;29;20086;-76
2023/03/27 09:08:07;;;;;;;2.08;0.65;;;;;;;;;;4955887;29;20098;-77
2023/03/27 09:10:35;;;;;;;2.00;0.55;;;;;;;;;;4955112;29;20027;-76
2023/03/27 09:13:11;;;;;;;2.85;0.85;;;;;;;;;;4937974;29;20032;-76
2023/03/27 09:15:44;;;;;;;1.77;0.60;;;;;;;;;;4955136;29;20437;-76
2023/03/27 09:18:19;;;;;;;4.18;0.60;;;;;;;;;;4950929;29;20023;-76
2023/03/27 09:20:45;;;;;;;1.67;0.40;;;;;;;;;;4955005;29;20418;-76
2023/03/27 09:23:15;;;;;;;0.30;0.30;;;;;;;;;;4955001;29;20027;-76
2023/03/27 09:25:45;;;;;;;1.08;0.40;;;;;;;;;;4955192;29;20082;-76
2023/03/27 09:28:18;;;;;;;0.70;0.20;;;;;;;;;;4955284;29;20032;-77
2023/03/27 09:30:51;;;;;;;2.25;0.40;;;;;;;;;;4954937;29;20038;-77
2023/03/27 09:33:18;;;;;;;0.57;0.30;;;;;;;;;;4955274;29;20055;-77
2023/03/27 09:35:44;;;;;;;0.10;0.10;;;;;;;;;;4955180;29;20127;-77
2023/03/27 09:38:33;;;;;;;1.95;0.50;;;;;;;;;;4937829;29;20019;-76
2023/03/27 09:40:59;;;;;;;2.55;0.20;;;;;;;;;;4937520;29;20121;-76
2023/03/27 09:43:28;;;;;;;1.17;0.30;;;;;;;;;;4955443;29;20098;-77
2023/03/27 09:45:54;;;;;;;2.15;0.47;;;;;;;;;;4954722;29;20548;-77
2023/03/27 09:48:38;;;;;;;0.65;0.20;;;;;;;;;;4955308;29;20177;-77
2023/03/27 09:51:04;;;;;;;1.65;0.20;;;;;;;;;;4954510;29;20097;-77
2023/03/27 09:53:31;;;;;;;2.30;0.40;;;;;;;;;;4955280;29;20028;-77
2023/03/27 09:56:02;;;;;;;1.50;0.40;;;;;;;;;;4947044;29;20106;-77
2023/03/27 09:58:28;;;;;;;2.10;0.60;;;;;;;;;;4945033;29;20031;-77
2023/03/27 10:01:08;;;;;;;0.30;0.20;;;;;;;;;;4944209;29;20034;-77
2023/03/27 10:03:38;;;;;;;4.18;0.65;;;;;;;;;;4939286;29;20027;-77
2023/03/27 10:06:06;;;;;;;1.55;0.55;;;;;;;;;;4936193;29;20106;-77
2023/03/27 10:08:36;;;;;;;0.85;0.20;;;;;;;;;;4935200;29;20035;-77
2023/03/27 10:11:05;;;;;;;1.13;0.60;;;;;;;;;;4936860;29;20455;-77
2023/03/27 10:13:43;;;;;;;2.80;0.88;;;;;;;;;;4946045;29;20496;-77
2023/03/27 10:16:09;;;;;;;2.67;0.80;;;;;;;;;;4955733;29;20035;-77
2023/03/27 10:18:41;;;;;;;3.42;0.52;;;;;;;;;;4943352;29;20366;-77
2023/03/27 10:21:08;;;;;;;2.40;0.45;;;;;;;;;;4936248;29;20445;-77
2023/03/27 10:23:42;;;;;;;4.28;0.75;;;;;;;;;;4936464;29;20026;-77
2023/03/27 10:26:12;;;;;;;2.60;0.90;;;;;;;;;;4936425;29;20036;-77
2023/03/27 10:28:39;;;;;;;1.50;0.63;;;;;;;;;;4936319;29;20475;-77
2023/03/27 10:31:10;;;;;;;2.75;0.52;;;;;;;;;;4936570;29;20023;-77
2023/03/27 10:33:38;;;;;;;3.85;0.43;;;;;;;;;;4935106;29;20062;-77
2023/03/27 10:36:09;;;;;;;3.97;0.47;;;;;;;;;;4936064;29;20020;-77
2023/03/27 10:38:36;;;;;;;1.70;0.57;;;;;;;;;;4936012;29;20039;-77
2023/03/27 10:41:03;;;;;;;5.25;1.27;;;;;;;;;;4934519;29;20024;-77
2023/03/27 10:43:42;;;;;;;2.85;0.60;;;;;;;;;;4935894;29;20115;-76
2023/03/27 10:46:28;;;;;;;4.80;0.83;;;;;;;;;;4954085;29;20451;-76
2023/03/27 10:49:08;;;;;;;2.88;0.50;;;;;;;;;;4953636;29;20799;-77
2023/03/27 10:51:34;;;;;;;3.13;0.60;;;;;;;;;;4953398;29;20023;-77
2023/03/27 10:54:02;;;;;;;4.72;1.20;;;;;;;;;;4953258;29;20125;-76
2023/03/27 10:56:40;;;;;;;1.83;0.40;;;;;;;;;;4937580;29;20067;-77
2023/03/27 10:59:11;;;;;;;0.68;0.60;;;;;;;;;;4934101;29;20031;-77
2023/03/27 11:01:39;;;;;;;3.35;0.65;;;;;;;;;;4934027;29;20032;-76
2023/03/27 11:04:14;;;;;;;3.10;0.73;;;;;;;;;;4933770;29;20095;-77
2023/03/27 11:06:42;;;;;;;1.73;0.43;;;;;;;;;;4943053;29;20027;-76
2023/03/27 11:09:14;;;;;;;3.55;0.60;;;;;;;;;;4953140;29;20042;-77
2023/03/27 11:12:01;;;;;;;2.63;0.68;;;;;;;;;;4952989;29;20027;-77
2023/03/27 11:14:34;;;;;;;3.47;0.50;;;;;;;;;;4944555;29;20028;-77
2023/03/27 11:17:02;;;;;;;5.88;0.43;;;;;;;;;;4949109;28;20050;-77
2023/03/27 11:19:28;;;;;;;4.53;0.82;;;;;;;;;;4954658;29;20510;-77
2023/03/27 11:21:57;;;;;;;4.28;0.68;;;;;;;;;;4942005;29;20040;-77
2023/03/27 11:24:26;;;;;;;2.53;0.70;;;;;;;;;;4945220;29;20027;-76
2023/03/27 11:27:14;;;;;;;4.67;0.83;;;;;;;;;;4952957;29;20427;-77
2023/03/27 11:30:03;;;;;;;3.25;0.60;;;;;;;;;;4941605;29;20067;-77
2023/03/27 11:32:38;;;;;;;2.08;0.35;;;;;;;;;;4934027;29;20083;-77
2023/03/27 11:35:12;;;;;;;5.32;0.55;;;;;;;;;;4916823;29;20430;-77
2023/03/27 11:37:45;;;;;;;2.42;0.57;;;;;;;;;;4935327;29;20038;-77
2023/03/27 11:40:12;;;;;;;3.08;1.02;;;;;;;;;;4935485;29;20020;-77
2023/03/27 11:42:41;;;;;;;5.63;1.30;;;;;;;;;;4934581;29;20060;-77
2023/03/27 11:45:11;;;;;;;2.20;0.70;;;;;;;;;;4949332;29;20023;-77
2023/03/27 11:47:49;;;;;;;8.25;1.30;;;;;;;;;;4953128;29;20063;-77
2023/03/27 11:50:18;;;;;;;2.83;0.77;;;;;;;;;;4954491;29;20434;-77
2023/03/27 11:52:56;;;;;;;2.95;0.77;;;;;;;;;;4954419;29;20035;-77
2023/03/27 11:55:31;;;;;;;4.72;1.10;;;;;;;;;;4937248;29;20031;-77
2023/03/27 11:58:04;;;;;;;4.35;0.73;;;;;;;;;;4937091;29;20703;-77
2023/03/27 12:00:35;;;;;;;2.15;0.68;;;;;;;;;;4954492;29;20035;-77
2023/03/27 12:03:19;;;;;;;7.03;1.08;;;;;;;;;;4954629;29;20054;-77
2023/03/27 12:05:45;;;;;;;8.18;0.80;;;;;;;;;;4955276;29;20027;-76
2023/03/27 12:08:21;;;;;;;6.93;0.77;;;;;;;;;;4937822;29;20044;-76
2023/03/27 12:10:49;;;;;;;10.38;1.00;;;;;;;;;;4934923;29;20467;-76
2023/03/27 12:13:21;;;;;;;7.85;1.05;;;;;;;;;;4935042;29;20027;-76
2023/03/27 12:15:59;;;;;;;4.75;0.82;;;;;;;;;;4934882;29;20035;-74
2023/03/27 12:18:40;;;;;;;5.63;1.20;;;;;;;;;;4934867;29;20110;-76
2023/03/27 12:21:20;;;;;;;2.40;0.68;;;;;;;;;;4935545;29;20034;-77
2023/03/27 12:23:57;;;;;;;4.35;0.75;;;;;;;;;;4935514;29;20107;-77
2023/03/27 12:26:42;;;;;;;3.03;0.32;;;;;;;;;;4935331;29;20027;-76
2023/03/27 12:29:34;;;;;;;2.08;0.68;;;;;;;;;;4938016;29;20042;-77
2023/03/27 12:32:03;;;;;;;1.40;0.25;;;;;;;;;;4936148;29;20131;-77
2023/03/27 12:34:35;;;;;;;5.88;0.60;;;;;;;;;;4939607;29;20035;-76
2023/03/27 12:37:02;;;;;;;2.92;0.68;;;;;;;;;;4938493;29;20030;-76
2023/03/27 12:39:28;;;;;;;3.55;0.80;;;;;;;;;;4938205;29;20024;-76
2023/03/27 12:41:54;;;;;;;4.78;0.77;;;;;;;;;;4938013;29;20109;-76
2023/03/27 12:44:27;;;;;;;4.28;0.63;;;;;;;;;;4938126;29;20024;-76
2023/03/27 12:47:26;;;;;;;3.65;0.93;;;;;;;;;;4936941;29;20055;-76
2023/03/27 12:49:57;;;;;;;2.05;0.50;;;;;;;;;;4905756;29;20390;-76
2023/03/27 12:52:24;;;;;;;3.13;0.57;;;;;;;;;;4938251;29;20367;-76
2023/03/27 12:55:10;;;;;;;3.85;0.93;;;;;;;;;;4938205;29;20055;-77
2023/03/27 12:57:44;;;;;;;2.47;0.63;;;;;;;;;;4927732;29;20046;-76
2023/03/27 13:00:25;;;;;;;2.78;0.85;;;;;;;;;;4938369;29;20062;-77
2023/03/27 13:03:10;;;;;;;2.65;0.50;;;;;;;;;;4938482;29;20032;-76
2023/03/27 13:05:54;;;;;;;3.63;0.95;;;;;;;;;;4938851;29;20034;-76
2023/03/27 13:08:36;;;;;;;2.83;0.75;;;;;;;;;;4937513;29;20032;-77
2023/03/27 13:11:20;;;;;;;1.10;0.40;;;;;;;;;;4938251;29;20066;-76
2023/03/27 13:14:05;;;;;;;5.47;1.00;;;;;;;;;;4937689;29;20028;-76
2023/03/27 13:16:31;;;;;;;7.90;0.60;;;;;;;;;;4937973;29;20490;-76
2023/03/27 13:19:18;;;;;;;2.40;0.38;;;;;;;;;;4938178;29;20035;-76
2023/03/27 13:21:44;;;;;;;3.90;0.60;;;;;;;;;;4937494;29;20637;-76
2023/03/27 13:24:14;;;;;;;14.68;0.70;;;;;;;;;;4937969;29;20027;-76
2023/03/27 13:26:43;;;;;;;1.25;0.65;;;;;;;;;;4937647;29;20111;-76
2023/03/27 13:29:21;;;;;;;1.63;0.40;;;;;;;;;;4938012;29;20427;-76
2023/03/27 13:31:48;;;;;;;3.55;0.50;;;;;;;;;;4946937;29;20035;-76
2023/03/27 13:34:26;;;;;;;2.45;0.50;;;;;;;;;;4948224;29;20031;-77
2023/03/27 13:37:12;;;;;;;2.20;0.28;;;;;;;;;;4956654;29;20106;-76
2023/03/27 13:39:47;;;;;;;1.40;0.43;;;;;;;;;;4956118;28;20050;-76
2023/03/27 13:42:14;;;;;;;5.03;0.93;;;;;;;;;;4956548;29;20031;-76
2023/03/27 13:45:00;;;;;;;2.08;0.63;;;;;;;;;;4956415;29;20027;-76
2023/03/27 13:47:27;;;;;;;2.22;0.43;;;;;;;;;;4954992;29;20122;-76
2023/03/27 13:49:59;;;;;;;2.72;0.73;;;;;;;;;;4956623;29;20025;-76
2023/03/27 13:52:28;;;;;;;5.15;1.00;;;;;;;;;;4938802;29;20527;-76
2023/03/27 13:55:00;;;;;;;3.00;0.70;;;;;;;;;;4937110;29;20028;-76
2023/03/27 13:57:34;;;;;;;4.93;0.98;;;;;;;;;;4937137;29;20032;-76
2023/03/27 14:00:19;;;;;;;2.70;0.40;;;;;;;;;;4936944;29;20051;-76
2023/03/27 14:02:57;;;;;;;9.05;0.90;;;;;;;;;;4936854;29;20027;-76
2023/03/27 14:05:38;;;;;;;7.53;1.15;;;;;;;;;;4936811;29;20028;-76
2023/03/27 14:08:04;;;;;;;4.13;1.08;;;;;;;;;;4936978;29;20035;-76
2023/03/27 14:10:43;;;;;;;3.67;1.20;;;;;;;;;;4945320;29;20027;-77
2023/03/27 14:13:22;;;;;;;5.82;1.38;;;;;;;;;;4955879;29;20034;-76
2023/03/27 14:16:27;;;;;;;1.40;0.30;;;;;;;;;;4956039;29;20032;-76
2023/03/27 14:19:00;;;;;;;5.53;1.02;;;;;;;;;;4880553;29;20048;-76
2023/03/27 14:21:27;;;;;;;8.82;0.90;;;;;;;;;;4896496;29;20096;-76
2023/03/27 14:24:02;;;;;;;3.67;0.85;;;;;;;;;;4927858;29;20031;-76
2023/03/27 14:26:36;;;;;;;3.03;0.45;;;;;;;;;;4955955;29;20031;-76
2023/03/27 14:29:03;;;;;;;3.55;0.70;;;;;;;;;;4955807;29;20032;-76
2023/03/27 14:31:34;;;;;;;5.28;0.68;;;;;;;;;;4956159;29;20028;-76
2023/03/27 14:34:05;;;;;;;8.35;1.20;;;;;;;;;;4955543;29;20024;-77
2023/03/27 14:36:40;;;;;;;6.47;1.13;;;;;;;;;;4955515;29;20027;-76
2023/03/27 14:39:15;;;;;;;5.43;0.80;;;;;;;;;;4955820;29;20027;-76
2023/03/27 14:41:46;;;;;;;4.55;0.70;;;;;;;;;;4955662;29;20019;-76
2023/03/27 14:44:12;;;;;;;6.78;0.82;;;;;;;;;;4955200;29;20498;-76
2023/03/27 14:46:39;;;;;;;1.45;0.47;;;;;;;;;;4955106;29;20055;-76
2023/03/27 14:49:05;;;;;;;1.92;0.55;;;;;;;;;;4955043;29;20028;-77
2023/03/27 14:51:36;;;;;;;1.65;0.38;;;;;;;;;;4954224;28;20371;-76
2023/03/27 14:54:07;;;;;;;3.13;0.63;;;;;;;;;;4955222;29;20031;-76
2023/03/27 14:56:40;;;;;;;3.75;0.38;;;;;;;;;;4955226;29;20031;-76
2023/03/27 14:59:11;;;;;;;1.95;0.47;;;;;;;;;;4955164;29;20031;-76
2023/03/27 15:01:37;;;;;;;2.88;0.40;;;;;;;;;;4954771;29;20031;-76